Time;durP1;ratioP1;P1;durP2;ratioP2;P2;SDS_P1;SDS_P2;PMS_P1;PMS_P2;Temp;Humidity;BMP_temperature;BMP_pressure;BME280_temperature;BME280_humidity;BME280_pressure;Samples;Min_cycle;Max_cycle;Signal;HPM_P1;HPM_P2
2021/11/23 00:02:54;;;;;;;12.07;5.50;;;11.50;64.00;;;;;;6271281;28;20049;-73
2021/11/23 00:05:55;;;;;;;11.35;5.32;;;11.60;65.00;;;;;;6249235;28;20038;-73
2021/11/23 00:08:56;;;;;;;10.57;5.35;;;11.50;65.00;;;;;;6244873;28;20049;-73
2021/11/23 00:11:57;;;;;;;11.98;5.55;;;11.60;64.20;;;;;;6276811;28;20171;-73
2021/11/23 00:14:58;;;;;;;17.00;5.35;;;11.60;64.00;;;;;;6275034;28;20033;-73
2021/11/23 00:17:59;;;;;;;10.15;5.32;;;11.50;64.00;;;;;;6266845;28;20405;-73
2021/11/23 00:21:00;;;;;;;10.55;5.18;;;11.50;64.00;;;;;;6271559;28;20050;-73
2021/11/23 00:24:00;;;;;;;13.38;6.03;;;11.50;64.00;;;;;;6249071;28;20363;-72
2021/11/23 00:27:02;;;;;;;11.45;6.30;;;11.50;64.00;;;;;;6277196;28;20086;-73
2021/11/23 00:30:04;;;;;;;10.77;5.28;;;11.60;64.00;;;;;;6249752;28;20040;-73
2021/11/23 00:33:05;;;;;;;11.80;5.45;;;11.50;64.00;;;;;;6261156;28;20458;-73
2021/11/23 00:36:06;;;;;;;9.55;4.97;;;11.50;64.00;;;;;;6250916;28;20371;-73
2021/11/23 00:39:06;;;;;;;12.55;6.03;;;11.40;64.10;;;;;;6263278;28;20088;-73
2021/11/23 00:42:07;;;;;;;19.75;6.07;;;11.40;64.20;;;;;;6257834;28;20099;-73
2021/11/23 00:45:10;;;;;;;16.20;6.10;;;11.40;64.50;;;;;;6267148;28;20068;-74
2021/11/23 00:48:11;;;;;;;13.90;6.32;;;11.30;64.30;;;;;;6275574;28;20107;-74
2021/11/23 00:51:12;;;;;;;11.52;5.20;;;11.30;64.30;;;;;;6275493;28;20102;-74
2021/11/23 00:54:14;;;;;;;11.23;6.13;;;11.30;64.50;;;;;;6275863;28;20041;-73
2021/11/23 00:57:15;;;;;;;17.25;6.60;;;11.30;64.50;;;;;;6260602;28;20037;-73
2021/11/23 01:00:16;;;;;;;16.42;6.63;;;11.40;64.60;;;;;;6250290;28;20046;-73
2021/11/23 01:03:18;;;;;;;11.30;6.10;;;11.40;64.40;;;;;;6277746;28;20498;-74
2021/11/23 01:06:20;;;;;;;15.98;6.60;;;11.40;64.40;;;;;;6247947;28;20045;-74
2021/11/23 01:09:22;;;;;;;11.77;5.32;;;11.40;64.10;;;;;;6274994;28;20064;-73
2021/11/23 01:12:24;;;;;;;14.48;6.40;;;11.40;64.10;;;;;;6249781;28;20037;-73
2021/11/23 01:15:24;;;;;;;14.20;6.28;;;11.30;64.20;;;;;;6274361;28;20052;-73
2021/11/23 01:18:26;;;;;;;15.73;6.40;;;11.40;64.30;;;;;;6241138;28;20379;-73
2021/11/23 01:21:27;;;;;;;17.20;6.03;;;11.30;64.20;;;;;;6258085;28;20037;-74
2021/11/23 01:24:28;;;;;;;11.18;5.70;;;11.40;64.30;;;;;;6257755;28;20052;-73
2021/11/23 01:27:29;;;;;;;11.82;5.57;;;11.40;64.20;;;;;;6273856;28;20041;-73
2021/11/23 01:30:30;;;;;;;15.00;5.63;;;11.40;64.20;;;;;;6252736;28;20037;-73
2021/11/23 01:33:31;;;;;;;11.68;5.90;;;11.40;64.10;;;;;;6258444;28;20088;-73
2021/11/23 01:36:32;;;;;;;13.93;6.38;;;11.40;64.10;;;;;;6242194;28;20057;-73
2021/11/23 01:39:33;;;;;;;17.23;7.15;;;11.40;64.20;;;;;;6256512;28;20457;-73
2021/11/23 01:42:35;;;;;;;13.45;6.43;;;11.40;64.20;;;;;;6266876;28;20048;-73
2021/11/23 01:45:38;;;;;;;18.55;5.63;;;11.40;64.20;;;;;;6273999;28;20029;-72
2021/11/23 01:48:39;;;;;;;18.30;6.28;;;11.50;64.20;;;;;;6272842;28;20040;-72
2021/11/23 01:51:42;;;;;;;13.93;6.13;;;11.50;64.20;;;;;;6274010;28;20037;-72
2021/11/23 01:54:43;;;;;;;17.13;6.18;;;11.50;64.20;;;;;;6273442;28;20492;-73
2021/11/23 01:57:44;;;;;;;12.95;6.18;;;11.50;64.20;;;;;;6274214;28;20025;-73
2021/11/23 02:00:45;;;;;;;14.05;6.22;;;11.50;64.20;;;;;;6273730;28;20040;-73
2021/11/23 02:03:46;;;;;;;14.32;6.45;;;11.50;64.10;;;;;;6273883;28;20428;-73
2021/11/23 02:06:47;;;;;;;21.77;7.10;;;11.60;64.10;;;;;;6264632;28;20041;-73
2021/11/23 02:09:48;;;;;;;11.15;5.65;;;11.50;63.90;;;;;;6288713;28;20369;-72
2021/11/23 02:12:49;;;;;;;14.23;6.93;;;11.50;63.90;;;;;;6260735;28;20060;-73
2021/11/23 02:15:50;;;;;;;16.95;6.65;;;11.50;63.90;;;;;;6248453;28;20099;-72
2021/11/23 02:18:51;;;;;;;13.07;5.65;;;11.50;63.90;;;;;;6231445;28;20416;-72
2021/11/23 02:21:53;;;;;;;13.43;6.88;;;11.50;64.10;;;;;;6256823;28;20033;-73
2021/11/23 02:24:54;;;;;;;18.70;6.57;;;11.50;64.10;;;;;;6247912;28;20049;-73
2021/11/23 02:27:54;;;;;;;16.15;6.53;;;11.50;64.10;;;;;;6246920;28;20470;-73
2021/11/23 02:30:57;;;;;;;14.15;6.28;;;11.40;64.00;;;;;;6263877;28;20041;-73
2021/11/23 02:33:58;;;;;;;14.57;7.00;;;11.40;64.20;;;;;;6271705;28;20116;-73
2021/11/23 02:37:00;;;;;;;13.55;6.10;;;11.50;64.40;;;;;;6269669;28;20094;-73
2021/11/23 02:40:01;;;;;;;13.13;6.43;;;11.50;64.40;;;;;;6272822;28;20037;-73
2021/11/23 02:43:03;;;;;;;16.63;7.47;;;11.50;64.30;;;;;;6255231;28;20356;-73
2021/11/23 02:46:04;;;;;;;13.88;6.80;;;11.50;64.20;;;;;;6273847;28;20047;-74
2021/11/23 02:49:06;;;;;;;14.00;5.82;;;11.50;64.10;;;;;;6249097;28;20053;-73
2021/11/23 02:52:10;;;;;;;11.65;5.72;;;11.50;64.10;;;;;;6261344;28;20049;-73
2021/11/23 02:55:11;;;;;;;12.15;6.10;;;11.50;64.10;;;;;;6266906;28;20461;-73
2021/11/23 02:58:12;;;;;;;12.15;6.00;;;11.50;64.10;;;;;;6271635;28;20080;-73
2021/11/23 03:01:17;;;;;;;17.70;7.05;;;11.50;64.20;;;;;;6273422;28;20067;-73
2021/11/23 03:04:17;;;;;;;16.65;6.63;;;11.40;64.20;;;;;;6270794;28;20386;-73
2021/11/23 03:07:20;;;;;;;14.85;6.88;;;11.40;64.30;;;;;;6273675;28;20045;-73
2021/11/23 03:10:22;;;;;;;13.00;5.90;;;11.40;64.40;;;;;;6273638;28;20070;-73
2021/11/23 03:13:23;;;;;;;18.67;6.70;;;11.40;64.50;;;;;;6272171;28;20052;-73
2021/11/23 03:16:24;;;;;;;14.52;6.40;;;11.40;64.50;;;;;;6250578;28;20478;-73
2021/11/23 03:19:24;;;;;;;14.05;6.63;;;11.40;64.60;;;;;;6250768;28;20045;-72
2021/11/23 03:22:27;;;;;;;13.13;6.00;;;11.50;64.60;;;;;;6243676;28;20029;-72
2021/11/23 03:25:28;;;;;;;15.27;5.80;;;11.50;64.50;;;;;;6253467;28;20048;-73
2021/11/23 03:28:29;;;;;;;13.07;6.30;;;11.50;64.50;;;;;;6243152;28;20035;-73
2021/11/23 03:31:29;;;;;;;13.77;6.38;;;11.50;64.30;;;;;;6253007;28;20033;-73
2021/11/23 03:34:36;;;;;;;14.25;5.55;;;11.50;64.20;;;;;;6244480;28;20033;-74
2021/11/23 03:37:37;;;;;;;16.65;7.47;;;11.50;64.30;;;;;;6251711;28;20029;-73
2021/11/23 03:40:40;;;;;;;16.67;6.45;;;11.50;64.30;;;;;;6246855;28;20029;-73
2021/11/23 03:43:41;;;;;;;16.75;6.50;;;11.40;64.20;;;;;;6249697;28;20104;-73
2021/11/23 03:46:42;;;;;;;17.20;5.95;;;11.40;64.30;;;;;;6258780;28;20041;-73
2021/11/23 03:49:46;;;;;;;10.07;5.72;;;11.40;64.30;;;;;;6248147;28;20048;-73
2021/11/23 03:52:48;;;;;;;15.65;6.50;;;11.30;64.40;;;;;;6245324;28;20033;-73
2021/11/23 03:55:50;;;;;;;12.60;5.88;;;11.30;64.70;;;;;;6246770;28;20136;-73
2021/11/23 03:58:50;;;;;;;14.43;5.85;;;11.30;64.80;;;;;;6240508;28;20036;-73
2021/11/23 04:01:52;;;;;;;12.30;5.82;;;11.30;64.90;;;;;;6248870;28;20041;-72
2021/11/23 04:04:53;;;;;;;12.00;6.05;;;11.30;64.90;;;;;;6249801;28;20541;-73
2021/11/23 04:07:54;;;;;;;14.93;6.65;;;11.40;64.90;;;;;;6249143;28;20057;-73
2021/11/23 04:10:55;;;;;;;12.77;6.55;;;11.40;64.80;;;;;;6256291;28;20041;-73
2021/11/23 04:13:57;;;;;;;13.18;6.22;;;11.40;64.70;;;;;;6248612;28;20467;-73
2021/11/23 04:16:58;;;;;;;17.20;7.25;;;11.40;64.80;;;;;;6233791;28;20152;-73
2021/11/23 04:19:59;;;;;;;13.38;6.75;;;11.30;64.80;;;;;;6250310;28;20049;-74
2021/11/23 04:22:59;;;;;;;15.70;6.97;;;11.40;65.00;;;;;;6230567;28;20045;-74
2021/11/23 04:26:01;;;;;;;15.70;6.82;;;11.40;65.10;;;;;;6249963;28;20091;-73
2021/11/23 04:29:03;;;;;;;12.30;5.90;;;11.40;65.10;;;;;;6275479;28;20037;-72
2021/11/23 04:32:04;;;;;;;12.10;6.03;;;11.40;65.00;;;;;;6272041;28;20040;-73
2021/11/23 04:35:06;;;;;;;12.73;5.97;;;11.40;65.10;;;;;;6270208;28;20119;-73
2021/11/23 04:38:10;;;;;;;11.98;5.80;;;11.50;65.10;;;;;;6254296;28;20083;-72
2021/11/23 04:41:11;;;;;;;12.95;6.28;;;11.50;65.00;;;;;;6248537;28;20035;-73
2021/11/23 04:44:12;;;;;;;10.98;6.05;;;11.50;65.00;;;;;;6255499;28;20044;-74
2021/11/23 04:47:13;;;;;;;16.92;6.53;;;11.50;65.00;;;;;;6234365;28;20080;-73
2021/11/23 04:50:14;;;;;;;12.82;6.30;;;11.50;65.00;;;;;;6240587;28;20049;-73
2021/11/23 04:53:15;;;;;;;13.75;6.32;;;11.40;65.00;;;;;;6245845;28;20458;-73
2021/11/23 04:56:16;;;;;;;18.45;7.72;;;11.40;65.10;;;;;;6264312;28;20044;-72
2021/11/23 04:59:17;;;;;;;13.30;6.40;;;11.50;65.10;;;;;;6243555;28;20042;-72
2021/11/23 05:02:21;;;;;;;16.15;6.13;;;11.50;65.10;;;;;;6250219;28;20040;-73
2021/11/23 05:05:22;;;;;;;13.90;6.35;;;11.50;65.00;;;;;;6268199;28;20041;-72
2021/11/23 05:08:22;;;;;;;18.33;7.35;;;11.40;64.90;;;;;;6247072;28;20042;-73
2021/11/23 05:11:27;;;;;;;17.15;7.53;;;11.40;65.00;;;;;;6247210;28;20042;-73
2021/11/23 05:14:28;;;;;;;12.95;7.32;;;11.40;65.10;;;;;;6249130;28;20467;-75
2021/11/23 05:17:29;;;;;;;13.82;6.38;;;11.40;65.00;;;;;;6241927;28;20032;-73
2021/11/23 05:20:30;;;;;;;13.48;6.68;;;11.40;65.10;;;;;;6247560;28;20042;-73
2021/11/23 05:23:31;;;;;;;13.93;7.13;;;11.40;65.20;;;;;;6225878;28;20533;-74
2021/11/23 05:26:32;;;;;;;16.13;7.03;;;11.40;65.20;;;;;;6240511;28;20069;-73
2021/11/23 05:29:33;;;;;;;13.18;7.35;;;11.40;65.20;;;;;;6260301;28;20063;-73
2021/11/23 05:32:34;;;;;;;16.10;6.53;;;11.40;65.10;;;;;;6244496;28;20488;-74
2021/11/23 05:35:35;;;;;;;14.45;6.97;;;11.40;65.10;;;;;;6239799;28;20117;-75
2021/11/23 05:38:37;;;;;;;17.15;6.43;;;11.30;65.10;;;;;;6248640;28;20025;-74
2021/11/23 05:41:38;;;;;;;16.40;6.70;;;11.30;65.10;;;;;;6236945;28;20065;-73
2021/11/23 05:44:39;;;;;;;10.60;5.72;;;11.30;65.30;;;;;;6268396;28;20045;-73
2021/11/23 05:47:41;;;;;;;12.60;6.00;;;11.30;65.40;;;;;;6229992;28;20034;-73
2021/11/23 05:50:42;;;;;;;14.93;6.55;;;11.20;65.50;;;;;;6227247;28;20386;-72
2021/11/23 05:53:43;;;;;;;15.00;6.07;;;11.20;65.60;;;;;;6243406;28;20046;-72
2021/11/23 05:56:44;;;;;;;12.77;6.30;;;11.20;65.70;;;;;;6275934;28;20037;-72
2021/11/23 05:59:44;;;;;;;14.55;6.72;;;11.20;65.80;;;;;;6259438;28;20040;-72
2021/11/23 06:02:45;;;;;;;13.63;6.97;;;11.20;65.80;;;;;;6243884;28;20025;-72
2021/11/23 06:05:47;;;;;;;14.85;6.90;;;11.20;65.80;;;;;;6218173;28;20367;-72
2021/11/23 06:08:48;;;;;;;18.60;6.20;;;11.30;65.90;;;;;;6259285;28;20053;-72
2021/11/23 06:11:49;;;;;;;16.77;7.45;;;11.30;65.80;;;;;;6236551;28;20045;-72
2021/11/23 06:14:49;;;;;;;13.90;6.30;;;11.30;65.70;;;;;;6277138;28;20120;-73
2021/11/23 06:17:58;;;;;;;15.48;7.38;;;11.30;65.60;;;;;;6266944;28;20033;-72
2021/11/23 06:21:00;;;;;;;14.02;7.13;;;11.30;66.70;;;;;;6257087;28;20475;-73
2021/11/23 06:24:02;;;;;;;15.18;7.38;;;11.30;65.80;;;;;;6247067;28;20049;-75
2021/11/23 06:27:03;;;;;;;19.90;8.95;;;11.30;65.90;;;;;;6244266;28;20493;-73
2021/11/23 06:30:06;;;;;;;15.75;7.57;;;11.30;65.90;;;;;;6249865;28;20478;-72
2021/11/23 06:37:23;;;;;;;15.15;7.28;;;11.20;65.80;;;;;;6253516;28;20433;-71
2021/11/23 06:51:54;;;;;;;16.38;7.20;;;11.30;66.30;;;;;;6147864;28;20094;-73
2021/11/23 06:54:55;;;;;;;16.42;6.38;;;11.20;66.10;;;;;;6150611;28;20035;-72
2021/11/23 06:57:56;;;;;;;15.15;6.28;;;11.20;66.10;;;;;;6165568;28;20090;-73
2021/11/23 07:00:58;;;;;;;20.92;6.20;;;11.20;66.20;;;;;;6133395;28;20047;-72
2021/11/23 07:03:59;;;;;;;15.45;6.82;;;11.20;66.20;;;;;;6133792;28;20043;-75
2021/11/23 07:07:00;;;;;;;12.30;5.88;;;11.20;66.10;;;;;;6150983;28;20170;-72
2021/11/23 07:10:06;;;;;;;13.32;6.00;;;11.20;66.10;;;;;;6131544;29;20031;-71
2021/11/23 07:13:07;;;;;;;20.20;6.50;;;11.20;66.20;;;;;;6115354;29;20059;-72
2021/11/23 07:16:09;;;;;;;24.63;6.80;;;11.20;66.30;;;;;;6153387;28;20043;-72
2021/11/23 07:19:09;;;;;;;18.58;6.80;;;11.10;66.30;;;;;;6138515;28;20028;-72
2021/11/23 07:22:10;;;;;;;12.73;6.38;;;11.20;66.40;;;;;;6154007;28;20055;-72
2021/11/23 07:25:11;;;;;;;11.80;6.10;;;11.20;66.40;;;;;;6137926;28;20054;-71
2021/11/23 07:28:12;;;;;;;11.60;6.32;;;11.20;66.40;;;;;;6170637;28;20039;-72
2021/11/23 07:31:13;;;;;;;13.73;7.32;;;11.30;66.30;;;;;;6138072;29;20047;-71
2021/11/23 07:34:14;;;;;;;10.77;5.55;;;11.30;66.10;;;;;;6156183;28;20039;-72
2021/11/23 07:37:15;;;;;;;14.85;6.28;;;11.30;66.20;;;;;;6138607;29;20424;-72
2021/11/23 07:40:17;;;;;;;16.42;5.95;;;11.40;66.00;;;;;;6155450;28;20467;-72
2021/11/23 07:43:17;;;;;;;10.77;5.78;;;11.40;65.90;;;;;;6155439;28;20529;-73
2021/11/23 07:46:19;;;;;;;20.80;6.78;;;11.50;65.80;;;;;;6133485;29;20545;-72
2021/11/23 07:49:21;;;;;;;12.02;6.03;;;11.50;65.70;;;;;;6142736;28;20496;-72
2021/11/23 07:52:22;;;;;;;12.40;6.32;;;11.60;65.60;;;;;;6119065;29;20046;-72
2021/11/23 07:55:23;;;;;;;20.83;6.88;;;11.60;65.40;;;;;;6154897;28;20062;-73
2021/11/23 07:58:24;;;;;;;13.90;6.93;;;11.70;65.40;;;;;;6155106;28;20031;-71
2021/11/23 08:01:25;;;;;;;17.05;7.38;;;11.70;65.40;;;;;;6133649;29;20265;-73
2021/11/23 08:04:26;;;;;;;19.17;7.50;;;11.80;65.30;;;;;;6152400;28;20134;-73
2021/11/23 08:07:28;;;;;;;16.73;7.18;;;11.80;65.10;;;;;;6137555;29;20044;-72
2021/11/23 08:10:29;;;;;;;16.83;7.22;;;11.80;65.10;;;;;;6138375;29;20427;-73
2021/11/23 08:13:30;;;;;;;19.00;8.02;;;11.80;64.90;;;;;;6155331;28;20346;-73
2021/11/23 08:16:31;;;;;;;20.63;8.77;;;11.80;64.90;;;;;;6137984;29;20038;-73
2021/11/23 08:19:32;;;;;;;31.60;8.10;;;11.80;65.10;;;;;;6137509;29;20376;-72
2021/11/23 08:22:33;;;;;;;15.80;7.60;;;11.80;65.20;;;;;;6138043;29;20040;-71
2021/11/23 08:25:38;;;;;;;14.77;7.50;;;11.90;65.20;;;;;;6153224;28;20121;-73
2021/11/23 08:28:39;;;;;;;19.65;8.73;;;11.90;65.10;;;;;;6147953;28;20039;-72
2021/11/23 08:31:40;;;;;;;18.08;8.75;;;11.90;64.90;;;;;;6137044;29;20036;-73
2021/11/23 08:34:40;;;;;;;16.23;7.45;;;11.90;64.90;;;;;;6136775;29;20041;-73
2021/11/23 08:37:42;;;;;;;13.82;6.60;;;11.90;64.90;;;;;;6137481;29;20035;-72
2021/11/23 08:40:42;;;;;;;28.38;6.75;;;11.90;64.90;;;;;;6154325;28;20243;-73
2021/11/23 08:43:43;;;;;;;16.80;7.47;;;11.90;65.00;;;;;;6137368;29;20518;-73
2021/11/23 08:46:44;;;;;;;18.70;7.38;;;11.90;65.00;;;;;;6141228;28;20035;-72
2021/11/23 08:49:46;;;;;;;25.52;12.70;;;11.80;65.00;;;;;;6144253;28;20150;-72
2021/11/23 08:52:47;;;;;;;15.48;7.32;;;11.90;65.30;;;;;;6152971;28;20039;-73
2021/11/23 08:55:48;;;;;;;19.23;8.82;;;11.90;65.10;;;;;;6152209;28;20047;-73
2021/11/23 08:58:53;;;;;;;19.60;7.78;;;11.90;65.10;;;;;;6153038;28;20463;-73
2021/11/23 09:01:53;;;;;;;19.00;8.32;;;12.00;65.10;;;;;;6168646;28;20487;-73
2021/11/23 09:04:54;;;;;;;19.95;8.10;;;12.00;65.00;;;;;;6154161;28;20039;-73
2021/11/23 09:07:59;;;;;;;17.17;7.97;;;12.00;64.90;;;;;;6136022;29;20098;-73
2021/11/23 09:11:00;;;;;;;21.77;8.23;;;12.00;64.90;;;;;;6132628;29;20185;-72
2021/11/23 09:14:01;;;;;;;21.38;8.70;;;12.10;64.80;;;;;;6153155;28;20051;-74
2021/11/23 09:17:05;;;;;;;19.58;8.48;;;12.00;64.70;;;;;;6150752;28;20039;-73
2021/11/23 09:20:09;;;;;;;38.47;10.10;;;12.10;64.80;;;;;;6151177;28;20039;-73
2021/11/23 09:23:13;;;;;;;24.75;11.15;;;12.10;64.80;;;;;;6153176;28;20047;-72
2021/11/23 09:26:14;;;;;;;22.05;9.60;;;12.10;64.80;;;;;;6151145;28;20141;-73
2021/11/23 09:29:16;;;;;;;22.08;9.50;;;12.20;64.80;;;;;;6151156;28;20039;-73
2021/11/23 09:32:17;;;;;;;22.98;10.23;;;12.20;64.50;;;;;;6147381;28;20040;-72
2021/11/23 09:35:19;;;;;;;21.02;9.23;;;12.20;64.50;;;;;;6153081;28;20042;-73
2021/11/23 09:38:20;;;;;;;27.38;11.52;;;12.30;64.50;;;;;;6154483;28;20037;-72
2021/11/23 09:41:21;;;;;;;18.48;8.82;;;12.40;64.30;;;;;;6153190;28;20051;-73
2021/11/23 09:44:23;;;;;;;19.05;8.73;;;12.40;64.20;;;;;;6135722;28;20464;-73
2021/11/23 09:47:27;;;;;;;19.70;9.27;;;12.50;64.10;;;;;;6152250;28;20054;-72
2021/11/23 09:50:28;;;;;;;20.50;9.20;;;12.50;63.90;;;;;;6146609;28;20046;-72
2021/11/23 09:53:29;;;;;;;19.98;9.02;;;12.60;63.80;;;;;;6143249;28;20027;-73
2021/11/23 09:56:31;;;;;;;26.02;12.23;;;12.60;63.60;;;;;;6119425;29;20372;-73
2021/11/23 09:59:32;;;;;;;24.15;10.10;;;12.70;63.30;;;;;;6152196;28;20375;-73
2021/11/23 10:02:33;;;;;;;26.17;11.00;;;12.60;63.10;;;;;;6152072;28;20035;-73
2021/11/23 10:05:37;;;;;;;48.50;15.25;;;12.70;63.20;;;;;;6119066;29;20068;-73
2021/11/23 10:08:41;;;;;;;35.75;15.23;;;12.70;63.20;;;;;;6152011;28;20039;-72
2021/11/23 10:11:44;;;;;;;32.22;13.32;;;12.70;62.90;;;;;;6151376;28;20075;-72
2021/11/23 10:15:14;;;;;;;24.75;11.63;;;12.80;62.80;;;;;;6147321;28;20098;-73
2021/11/23 10:18:20;;;;;;;16.45;8.45;;;12.90;62.70;;;;;;6137311;28;20035;-73
2021/11/23 10:21:26;;;;;;;24.98;10.10;;;13.00;62.50;;;;;;6160525;28;20105;-72
2021/11/23 10:24:35;;;;;;;28.15;12.70;;;13.10;62.10;;;;;;6126607;28;20231;-72
2021/11/23 10:27:41;;;;;;;31.02;11.73;;;13.20;61.80;;;;;;6135518;28;20114;-73
2021/11/23 10:30:45;;;;;;;16.85;8.85;;;13.20;61.50;;;;;;6129697;28;20421;-71
2021/11/23 10:33:54;;;;;;;21.02;9.80;;;13.30;61.40;;;;;;6129682;28;20471;-73
2021/11/23 10:36:55;;;;;;;18.92;8.80;;;13.50;61.20;;;;;;6146809;28;20494;-73
2021/11/23 10:40:21;;;;;;;18.10;9.73;;;13.40;60.90;;;;;;6147852;28;20043;-72
2021/11/23 10:43:23;;;;;;;30.42;12.68;;;13.50;60.60;;;;;;6147729;28;20118;-72
2021/11/23 10:46:27;;;;;;;46.50;20.15;;;13.50;60.40;;;;;;6145844;28;20349;-73
2021/11/23 10:49:32;;;;;;;36.22;16.45;;;13.50;60.20;;;;;;6111475;28;20362;-72
2021/11/23 10:52:39;;;;;;;26.75;12.30;;;13.50;60.00;;;;;;6129464;28;20043;-72
2021/11/23 10:55:42;;;;;;;46.70;13.57;;;13.50;60.00;;;;;;6113179;28;20058;-72
2021/11/23 10:58:46;;;;;;;24.55;9.20;;;13.60;60.00;;;;;;6161340;28;20043;-73
2021/11/23 11:01:48;;;;;;;21.42;10.40;;;13.60;59.80;;;;;;6129245;28;20379;-74
2021/11/23 11:04:51;;;;;;;29.70;14.75;;;13.60;59.70;;;;;;6129199;28;20062;-72
2021/11/23 11:07:54;;;;;;;49.40;19.00;;;13.70;59.60;;;;;;6123421;28;20053;-73
2021/11/23 11:10:55;;;;;;;83.75;27.58;;;13.70;59.40;;;;;;6156593;28;20043;-73
2021/11/23 11:13:56;;;;;;;50.55;18.80;;;13.80;59.40;;;;;;6144348;28;20058;-73
2021/11/23 11:16:57;;;;;;;28.30;10.75;;;13.80;58.90;;;;;;6128624;28;20039;-73
2021/11/23 11:19:59;;;;;;;26.77;10.35;;;13.70;58.90;;;;;;6159282;28;20364;-72
2021/11/23 11:23:07;;;;;;;27.77;13.68;;;13.70;59.00;;;;;;6128564;28;20269;-75
2021/11/23 11:29:26;;;;;;;;;;;13.80;58.90;;;;;;6145499;28;20453;-73
2021/11/23 11:32:36;;;;;;;28.60;12.00;;;13.80;58.90;;;;;;6158954;28;19914;-74
2021/11/23 11:35:44;;;;;;;27.58;13.13;;;13.80;58.90;;;;;;6144687;28;20039;-75
2021/11/23 11:38:48;;;;;;;30.73;12.57;;;13.70;58.90;;;;;;6128794;28;20031;-73
2021/11/23 11:41:49;;;;;;;29.05;13.13;;;13.70;59.30;;;;;;6142712;28;20062;-74
2021/11/23 11:44:53;;;;;;;31.58;12.20;;;13.70;58.90;;;;;;6117825;28;20051;-75
2021/11/23 11:47:58;;;;;;;33.92;11.95;;;13.70;58.70;;;;;;6160124;28;20050;-73
2021/11/23 11:51:03;;;;;;;23.98;10.90;;;13.80;58.90;;;;;;6142625;28;20457;-70
2021/11/23 11:54:19;;;;;;;26.92;11.48;;;13.80;58.80;;;;;;6139501;28;20098;-74
2021/11/23 11:57:29;;;;;;;23.77;11.50;;;13.80;58.90;;;;;;6139368;28;20043;-73
2021/11/23 12:00:32;;;;;;;25.42;12.27;;;13.90;58.80;;;;;;6143675;28;20054;-74
2021/11/23 12:03:35;;;;;;;22.88;10.10;;;13.90;58.80;;;;;;6150081;28;20356;-73
2021/11/23 12:06:54;;;;;;;21.25;8.85;;;14.00;58.90;;;;;;6149853;28;20031;-73
2021/11/23 12:09:58;;;;;;;;;;;14.10;58.70;;;;;;6136940;28;20399;-73
2021/11/23 12:13:24;;;;;;;23.38;10.13;;;14.10;58.60;;;;;;6136259;28;20335;-72
2021/11/23 12:16:46;;;;;;;28.75;12.48;;;14.20;58.60;;;;;;6126646;28;20047;-74
2021/11/23 12:19:54;;;;;;;22.13;10.20;;;14.30;58.30;;;;;;6152080;28;20058;-73
2021/11/23 12:23:13;;;;;;;24.13;10.20;;;14.30;57.90;;;;;;6132633;28;20031;-73
2021/11/23 12:26:17;;;;;;;24.08;11.57;;;14.20;57.90;;;;;;6149233;28;20131;-74
2021/11/23 12:29:24;;;;;;;21.50;10.82;;;14.20;58.00;;;;;;6149493;28;20031;-74
2021/11/23 12:32:30;;;;;;;24.52;10.63;;;14.20;58.50;;;;;;6150292;28;20408;-74
2021/11/23 12:35:37;;;;;;;23.38;10.73;;;14.20;57.80;;;;;;6148379;28;20042;-74
2021/11/23 12:38:38;;;;;;;20.33;9.60;;;14.20;57.90;;;;;;6136487;28;20043;-74
2021/11/23 12:41:40;;;;;;;22.40;11.40;;;14.20;57.90;;;;;;6131677;28;20259;-75
2021/11/23 12:44:44;;;;;;;21.63;9.50;;;14.20;57.90;;;;;;6132431;28;20067;-75
2021/11/23 12:47:50;;;;;;;21.75;8.57;;;14.20;58.00;;;;;;6153133;28;20041;-74
2021/11/23 12:50:51;;;;;;;19.33;9.50;;;14.20;58.00;;;;;;6133454;28;20141;-74
2021/11/23 12:53:56;;;;;;;21.75;10.45;;;14.30;57.90;;;;;;6147426;28;20043;-74
2021/11/23 12:57:05;;;;;;;20.52;9.38;;;14.30;57.90;;;;;;6149077;28;20035;-73
2021/11/23 13:00:08;;;;;;;17.33;8.43;;;14.40;57.90;;;;;;6148335;28;20129;-74
2021/11/23 13:03:11;;;;;;;22.60;9.57;;;14.50;57.80;;;;;;6142591;28;20047;-74
2021/11/23 13:06:12;;;;;;;19.92;9.80;;;14.50;57.40;;;;;;6150742;28;20170;-75
2021/11/23 13:09:13;;;;;;;24.05;9.40;;;14.60;57.30;;;;;;6129151;28;20031;-73
2021/11/23 13:12:16;;;;;;;19.65;8.90;;;14.60;57.20;;;;;;6130512;28;20055;-74
2021/11/23 13:15:23;;;;;;;17.75;9.07;;;14.60;57.40;;;;;;6143278;28;20028;-73
2021/11/23 13:18:28;;;;;;;19.48;8.90;;;14.60;57.40;;;;;;6136371;28;20410;-75
2021/11/23 13:21:29;;;;;;;20.50;9.77;;;14.60;57.40;;;;;;6148656;28;20044;-74
2021/11/23 13:24:29;;;;;;;21.85;9.88;;;14.60;57.40;;;;;;6148428;28;20071;-75
2021/11/23 13:27:31;;;;;;;18.88;9.15;;;14.60;57.40;;;;;;6165314;28;20130;-75
2021/11/23 13:30:40;;;;;;;23.13;9.48;;;14.50;57.30;;;;;;6181073;28;20063;-75
2021/11/23 13:33:45;;;;;;;27.40;9.85;;;14.50;57.40;;;;;;6147903;28;20352;-74
2021/11/23 13:36:49;;;;;;;28.90;9.93;;;14.50;57.40;;;;;;6150172;28;20043;-75
2021/11/23 13:39:51;;;;;;;23.67;10.20;;;14.50;57.20;;;;;;6148475;28;20084;-75
2021/11/23 13:42:52;;;;;;;18.10;8.57;;;14.50;57.00;;;;;;6149814;28;20043;-75
2021/11/23 13:46:19;;;;;;;18.58;8.75;;;14.50;57.10;;;;;;6146292;28;20036;-75
2021/11/23 13:49:28;;;;;;;21.77;8.70;;;14.40;57.00;;;;;;6131103;28;20036;-75
2021/11/23 13:52:33;;;;;;;23.45;9.25;;;14.40;57.00;;;;;;6134844;28;20476;-75
2021/11/23 13:55:38;;;;;;;20.95;9.32;;;14.40;57.10;;;;;;6154310;28;20514;-75
2021/11/23 13:59:09;;;;;;;18.35;8.30;;;14.40;57.20;;;;;;6140381;28;20039;-75
2021/11/23 14:02:11;;;;;;;16.15;8.10;;;14.40;57.20;;;;;;6137439;28;20052;-75
2021/11/23 14:05:14;;;;;;;15.30;8.77;;;14.30;57.20;;;;;;6137928;28;20090;-75
2021/11/23 14:08:31;;;;;;;22.35;9.82;;;14.30;57.90;;;;;;6119588;28;20042;-75
2021/11/23 14:11:32;;;;;;;20.88;9.90;;;14.30;57.30;;;;;;6131171;28;20035;-75
2021/11/23 14:14:55;;;;;;;17.83;9.57;;;14.30;57.10;;;;;;6129243;28;20448;-75
2021/11/23 14:18:02;;;;;;;13.68;7.47;;;14.20;57.20;;;;;;6139293;28;20042;-75
2021/11/23 14:21:05;;;;;;;21.52;8.50;;;14.20;57.20;;;;;;6143031;28;20031;-76
2021/11/23 14:24:06;;;;;;;14.82;7.80;;;14.20;57.20;;;;;;6132846;28;20047;-75
2021/11/23 14:27:07;;;;;;;15.20;8.15;;;14.20;57.10;;;;;;6142786;28;20086;-75
2021/11/23 14:30:08;;;;;;;17.27;8.70;;;14.20;57.10;;;;;;6103449;29;20054;-76
2021/11/23 14:33:09;;;;;;;19.95;7.95;;;14.20;57.00;;;;;;6141176;28;20039;-75
2021/11/23 14:36:21;;;;;;;21.88;9.15;;;14.20;56.90;;;;;;6127161;28;20408;-74
2021/11/23 14:39:24;;;;;;;22.95;8.32;;;14.10;56.90;;;;;;6140230;28;20473;-75
2021/11/23 14:42:26;;;;;;;21.48;8.65;;;14.10;56.90;;;;;;6128463;28;20039;-76
2021/11/23 14:45:27;;;;;;;20.85;10.18;;;14.10;56.70;;;;;;6136460;28;20146;-76
2021/11/23 14:48:30;;;;;;;33.33;11.93;;;14.10;56.70;;;;;;6131135;28;20066;-74
2021/11/23 14:51:31;;;;;;;18.88;7.97;;;14.00;56.70;;;;;;6133727;28;20066;-74
2021/11/23 14:54:32;;;;;;;16.70;8.27;;;14.00;56.80;;;;;;6143968;28;20069;-74
2021/11/23 14:57:33;;;;;;;21.38;7.60;;;14.00;57.00;;;;;;6152497;28;20043;-75
2021/11/23 15:00:35;;;;;;;27.45;8.05;;;14.00;56.80;;;;;;6161937;28;20042;-75
2021/11/23 15:03:37;;;;;;;17.10;6.57;;;14.00;56.70;;;;;;6128846;28;20043;-74
2021/11/23 15:06:38;;;;;;;20.92;8.75;;;13.90;56.80;;;;;;6146905;28;20123;-75
2021/11/23 15:09:41;;;;;;;16.75;7.50;;;13.90;56.60;;;;;;6141088;28;20031;-75
2021/11/23 15:12:42;;;;;;;14.85;7.47;;;13.90;56.60;;;;;;6160213;28;20421;-75
2021/11/23 15:15:43;;;;;;;16.20;7.10;;;13.90;56.70;;;;;;6163044;28;20296;-75
2021/11/23 15:18:43;;;;;;;19.02;8.75;;;13.90;56.90;;;;;;6147997;28;20035;-75
2021/11/23 15:21:44;;;;;;;18.73;8.07;;;13.90;56.90;;;;;;6146435;28;20500;-76
2021/11/23 15:24:46;;;;;;;14.98;7.53;;;13.90;57.10;;;;;;6160186;28;20050;-75
2021/11/23 15:27:47;;;;;;;17.80;8.77;;;13.90;57.10;;;;;;6168471;28;20027;-75
2021/11/23 15:30:49;;;;;;;25.10;8.68;;;13.90;57.10;;;;;;6157472;28;20047;-75
2021/11/23 15:33:52;;;;;;;18.05;8.30;;;13.90;57.10;;;;;;6169465;28;20399;-75
2021/11/23 15:36:53;;;;;;;15.20;7.88;;;13.90;57.10;;;;;;6168306;28;20064;-76
2021/11/23 15:39:54;;;;;;;20.42;8.38;;;13.90;57.10;;;;;;6162113;28;20035;-76
2021/11/23 15:42:55;;;;;;;17.95;8.55;;;13.90;57.10;;;;;;6141399;28;20121;-75
2021/11/23 15:45:57;;;;;;;12.82;7.25;;;13.90;57.10;;;;;;6158200;28;20499;-76
2021/11/23 15:48:57;;;;;;;17.45;7.05;;;13.90;57.10;;;;;;6165590;28;20090;-75
2021/11/23 15:51:59;;;;;;;15.50;8.48;;;13.90;57.20;;;;;;6127777;29;20452;-75
2021/11/23 15:54:59;;;;;;;15.95;7.80;;;13.90;57.10;;;;;;6135014;28;20043;-75
2021/11/23 15:58:02;;;;;;;19.70;7.63;;;13.80;57.00;;;;;;6121546;28;20598;-75